createdAt,value
2019-06-07T00:00:40.128Z,72.50
2019-06-07T00:03:03.246Z,72.40
2019-06-07T00:05:30.991Z,71.90
2019-06-07T00:08:07.826Z,71.20
2019-06-07T00:10:36.563Z,71.20
2019-06-07T00:12:58.095Z,71.70
2019-06-07T00:15:29.084Z,72.80
2019-06-07T00:17:55.941Z,72.60
2019-06-07T00:20:23.962Z,71.20
2019-06-07T00:22:52.606Z,72.50
2019-06-07T00:25:24.308Z,73.10
2019-06-07T00:27:49.917Z,74.10
2019-06-07T00:30:40.081Z,75.40
2019-06-07T00:32:47.859Z,75.20
2019-06-07T00:35:20.272Z,74.70
2019-06-07T00:37:45.938Z,75.80
2019-06-07T00:40:20.896Z,76.40
2019-06-07T00:42:44.830Z,77.30
2019-06-07T00:45:17.846Z,77.00
2019-06-07T00:47:42.609Z,76.40
2019-06-07T00:50:11.124Z,77.30
2019-06-07T00:53:13.417Z,76.50
2019-06-07T00:55:09.361Z,77.40
2019-06-07T00:57:37.321Z,78.50
2019-06-07T01:00:07.268Z,78.70
2019-06-07T01:02:35.038Z,78.60
2019-06-07T01:05:04.463Z,78.30
2019-06-07T01:07:32.073Z,78.00
2019-06-07T01:09:59.885Z,79.10
2019-06-07T01:12:27.733Z,79.90
2019-06-07T01:14:55.570Z,79.50
2019-06-07T01:17:40.081Z,79.20
2019-06-07T01:19:54.942Z,79.60
2019-06-07T01:22:28.402Z,79.20
2019-06-07T01:24:52.354Z,79.40
2019-06-07T01:27:22.598Z,80.20
2019-06-07T01:29:49.243Z,80.90
2019-06-07T01:32:18.785Z,81.20
2019-06-07T01:34:46.529Z,80.60
2019-06-07T01:37:16.721Z,80.80
2019-06-07T01:39:44.388Z,80.70
2019-06-07T01:42:11.953Z,81.20
2019-06-07T01:44:39.479Z,80.60
2019-06-07T01:47:07.224Z,80.60
2019-06-07T01:49:34.617Z,81.20
2019-06-07T01:52:02.382Z,80.90
2019-06-07T01:56:59.554Z,80.80
2019-06-07T01:59:28.451Z,81.60
2019-06-07T02:01:56.941Z,81.20
2019-06-07T02:04:27.327Z,81.20
2019-06-07T02:06:54.131Z,80.60
2019-06-07T02:09:23.498Z,80.80
2019-06-07T02:11:51.483Z,80.70
2019-06-07T02:14:19.557Z,80.90
2019-06-07T02:16:47.502Z,80.70
2019-06-07T02:19:15.014Z,80.80
2019-06-07T02:21:42.786Z,80.40
2019-06-07T02:24:10.191Z,81.20
2019-06-07T02:26:38.081Z,80.70
2019-06-07T02:29:05.607Z,80.90
2019-06-07T02:31:39.318Z,80.00
2019-06-07T02:34:02.543Z,79.20
2019-06-07T02:36:36.574Z,79.30
2019-06-07T02:38:59.873Z,79.40
2019-06-07T02:41:35.229Z,80.00
2019-06-07T02:43:58.486Z,79.80
2019-06-07T02:46:35.345Z,80.80
2019-06-07T02:48:56.017Z,80.40
2019-06-07T02:51:27.334Z,80.10
2019-06-07T02:53:53.857Z,80.00
2019-06-07T02:56:41.876Z,79.60
2019-06-07T02:58:51.115Z,79.70
2019-06-07T03:01:18.768Z,79.10
2019-06-07T03:03:46.389Z,78.80
2019-06-07T03:06:14.386Z,79.10
2019-06-07T03:08:44.865Z,79.70
2019-06-07T03:11:14.049Z,79.80
2019-06-07T03:13:44.602Z,79.50
2019-06-07T03:16:16.658Z,79.60
2019-06-07T03:18:53.617Z,78.50
2019-06-07T03:21:23.025Z,78.80
2019-06-07T03:23:53.275Z,78.30
2019-06-07T03:26:23.077Z,78.70
2019-06-07T03:28:50.673Z,78.70
2019-06-07T03:31:18.201Z,78.30
2019-06-07T03:33:46.325Z,78.40
2019-06-07T03:36:23.707Z,78.30
2019-06-07T03:38:43.575Z,78.10
2019-06-07T03:41:11.073Z,78.50
2019-06-07T03:43:40.745Z,78.00
2019-06-07T03:46:08.578Z,78.20
2019-06-07T03:48:39.562Z,78.70
2019-06-07T03:51:23.611Z,78.20
2019-06-07T03:53:37.328Z,78.50
2019-06-07T03:56:05.688Z,78.30
2019-06-07T03:58:41.158Z,78.50
2019-06-07T04:01:02.745Z,78.70
2019-06-07T04:03:37.248Z,78.20
2019-06-07T04:06:00.072Z,76.90
2019-06-07T04:08:28.304Z,77.10
2019-06-07T04:11:00.254Z,76.50
2019-06-07T04:13:25.903Z,76.30
2019-06-07T04:15:53.367Z,76.50
2019-06-07T04:18:21.345Z,77.00
2019-06-07T04:20:49.593Z,77.50
2019-06-07T04:23:27.731Z,78.00
2019-06-07T04:25:47.274Z,78.20
2019-06-07T04:28:15.257Z,78.20
2019-06-07T04:30:43.615Z,77.80
2019-06-07T04:33:12.993Z,79.10
2019-06-07T04:35:42.880Z,78.90
2019-06-07T04:38:11.289Z,78.80
2019-06-07T04:40:42.543Z,79.40
2019-06-07T04:43:10.194Z,79.70
2019-06-07T04:45:46.141Z,79.70
2019-06-07T04:48:08.017Z,79.30
2019-06-07T04:50:40.017Z,79.20
2019-06-07T04:53:05.876Z,79.20
2019-06-07T04:55:34.038Z,79.70
2019-06-07T04:58:03.763Z,79.60
2019-06-07T05:00:55.579Z,81.00
2019-06-07T05:03:03.585Z,82.00
2019-06-07T05:05:32.013Z,82.10
2019-06-07T05:08:07.204Z,83.00
2019-06-07T05:10:30.613Z,83.20
2019-06-07T05:12:58.873Z,83.80
2019-06-07T05:15:26.551Z,84.20
2019-06-07T05:17:54.050Z,83.30
2019-06-07T05:20:21.847Z,83.70
2019-06-07T05:22:49.645Z,83.70
2019-06-07T05:25:17.034Z,83.90
2019-06-07T05:27:46.951Z,84.30
2019-06-07T05:31:01.941Z,85.50
2019-06-07T05:32:59.229Z,85.70
2019-06-07T05:35:27.402Z,85.50
2019-06-07T05:37:54.947Z,85.50
2019-06-07T05:40:32.956Z,85.70
2019-06-07T05:43:02.692Z,86.00
2019-06-07T05:45:32.563Z,86.20
2019-06-07T05:48:02.722Z,85.30
2019-06-07T05:50:42.597Z,85.60
2019-06-07T05:53:00.191Z,85.80
2019-06-07T05:55:27.830Z,85.70
2019-06-07T05:57:55.835Z,85.60
2019-06-07T06:00:25.285Z,86.10
2019-06-07T06:03:04.859Z,85.50
2019-06-07T06:05:34.570Z,85.70
2019-06-07T06:07:54.158Z,87.10
2019-06-07T06:10:22.095Z,86.70
2019-06-07T06:12:51.699Z,87.30
2019-06-07T06:15:33.028Z,87.40
2019-06-07T06:17:53.684Z,87.60
2019-06-07T06:20:19.424Z,86.70
2019-06-07T06:22:48.711Z,86.20
2019-06-07T06:25:31.434Z,85.70
2019-06-07T06:30:16.571Z,85.50
2019-06-07T06:32:53.002Z,86.00
2019-06-07T06:35:14.399Z,86.90
2019-06-07T06:37:46.215Z,86.50
2019-06-07T06:40:13.645Z,86.00
2019-06-07T06:42:42.230Z,85.50
2019-06-07T06:45:10.842Z,85.20
2019-06-07T06:47:38.638Z,86.00
2019-06-07T06:50:07.247Z,85.70
2019-06-07T06:52:35.466Z,84.90
2019-06-07T06:55:04.156Z,85.80
2019-06-07T06:57:31.557Z,84.70
2019-06-07T06:59:59.037Z,84.00
2019-06-07T07:02:26.543Z,83.80
2019-06-07T07:04:54.206Z,85.00
2019-06-07T07:07:22.791Z,84.20
2019-06-07T07:09:54.954Z,84.70
2019-06-07T07:12:20.227Z,83.60
2019-06-07T07:14:49.648Z,84.60
2019-06-07T07:17:17.399Z,84.20
2019-06-07T07:19:48.472Z,85.10
2019-06-07T07:22:15.685Z,85.50
2019-06-07T07:24:44.449Z,86.20
2019-06-07T07:27:12.226Z,84.90
2019-06-07T07:29:39.719Z,85.00
2019-06-07T07:32:07.668Z,84.80
2019-06-07T07:34:37.158Z,84.90
2019-06-07T07:37:04.938Z,84.60
2019-06-07T07:39:32.619Z,85.40
2019-06-07T07:42:18.043Z,84.80
2019-06-07T07:44:29.895Z,83.90
2019-06-07T07:46:57.415Z,83.40
2019-06-07T07:49:25.250Z,83.30
2019-06-07T07:51:56.509Z,83.50
2019-06-07T07:54:22.561Z,84.10
2019-06-07T07:56:51.714Z,82.60
2019-06-07T07:59:19.733Z,82.30
2019-06-07T08:01:48.633Z,83.40
2019-06-07T08:04:17.370Z,82.20
2019-06-07T08:06:46.504Z,83.20
2019-06-07T08:09:14.555Z,83.60
2019-06-07T08:11:42.819Z,83.00
2019-06-07T08:14:10.459Z,82.60
2019-06-07T08:16:38.005Z,82.50
2019-06-07T08:19:05.776Z,83.70
2019-06-07T08:21:33.239Z,81.30
2019-06-07T08:24:04.641Z,80.70
2019-06-07T08:26:30.424Z,81.10
2019-06-07T08:29:02.332Z,80.70
2019-06-07T08:31:27.686Z,80.80
2019-06-07T08:33:58.059Z,81.70
2019-06-07T08:36:40.692Z,80.90
2019-06-07T08:38:59.826Z,81.70
2019-06-07T08:41:23.517Z,82.40
2019-06-07T08:43:53.220Z,81.70
2019-06-07T08:46:20.527Z,79.40
2019-06-07T08:48:48.108Z,80.80
2019-06-07T08:51:15.684Z,77.60
2019-06-07T08:53:43.315Z,78.70
2019-06-07T08:56:11.709Z,79.40
2019-06-07T08:58:39.488Z,79.10
2019-06-07T09:01:08.853Z,78.10
2019-06-07T09:03:36.402Z,78.30
2019-06-07T09:06:16.099Z,79.60
2019-06-07T09:08:33.644Z,80.10
2019-06-07T09:11:06.285Z,79.40
2019-06-07T09:13:31.057Z,77.60
2019-06-07T09:16:04.951Z,77.60
2019-06-07T09:18:42.196Z,75.80
2019-06-07T09:21:00.443Z,77.30
2019-06-07T09:23:27.075Z,78.90
2019-06-07T09:26:00.901Z,74.10
2019-06-07T09:28:24.724Z,77.40
2019-06-07T09:30:52.743Z,76.30
2019-06-07T09:33:20.714Z,75.70
2019-06-07T09:35:48.329Z,75.90
2019-06-07T09:38:24.849Z,76.00
2019-06-07T09:40:45.722Z,76.50
2019-06-07T09:45:43.294Z,78.50
2019-06-07T09:48:16.043Z,76.80
2019-06-07T09:50:41.573Z,75.90
2019-06-07T09:53:21.904Z,75.30
2019-06-07T09:55:39.982Z,75.70
2019-06-07T09:58:48.375Z,74.20
2019-06-07T10:00:41.420Z,75.20
2019-06-07T10:03:17.956Z,74.60
2019-06-07T10:05:36.041Z,72.90
2019-06-07T10:08:16.017Z,73.10
2019-06-07T10:13:01.730Z,74.70
2019-06-07T10:15:29.431Z,74.90
2019-06-07T10:17:56.959Z,73.10
2019-06-07T10:20:24.326Z,73.90
2019-06-07T10:22:51.752Z,75.40
2019-06-07T10:25:19.278Z,72.60
2019-06-07T10:27:46.919Z,74.90
2019-06-07T10:30:14.793Z,74.50
2019-06-07T10:32:42.677Z,73.00
2019-06-07T10:35:13.863Z,72.30
2019-06-07T10:37:40.494Z,72.50
2019-06-07T10:40:09.315Z,71.80
2019-06-07T10:42:37.208Z,70.60
2019-06-07T10:45:06.620Z,71.50
2019-06-07T10:47:34.794Z,73.50
2019-06-07T10:50:03.789Z,72.60
2019-06-07T10:52:31.453Z,71.00
2019-06-07T10:54:59.319Z,70.10
2019-06-07T10:57:27.188Z,71.40
2019-06-07T10:59:55.105Z,70.70
2019-06-07T11:02:22.609Z,70.90
2019-06-07T11:04:50.155Z,71.00
2019-06-07T11:07:17.758Z,70.70
2019-06-07T11:09:45.252Z,71.30
2019-06-07T11:12:15.160Z,68.70
2019-06-07T11:14:43.261Z,70.20
2019-06-07T11:17:11.377Z,71.00
2019-06-07T11:19:39.459Z,70.10
2019-06-07T11:22:08.002Z,68.40
2019-06-07T11:24:35.716Z,70.10
2019-06-07T11:27:03.326Z,74.20
2019-06-07T11:29:30.901Z,71.40
2019-06-07T11:32:00.125Z,69.20
2019-06-07T11:34:27.601Z,69.60
2019-06-07T11:36:55.194Z,68.00
2019-06-07T11:39:22.753Z,67.40
2019-06-07T11:41:50.558Z,70.70
2019-06-07T11:44:18.048Z,71.30
2019-06-07T11:46:46.689Z,67.40
2019-06-07T11:49:19.890Z,67.00
2019-06-07T11:51:43.621Z,69.80
2019-06-07T11:54:12.055Z,70.80
2019-06-07T11:56:39.818Z,68.40
2019-06-07T11:59:07.229Z,68.20
2019-06-07T12:01:37.274Z,68.40
2019-06-07T12:04:04.584Z,70.00
2019-06-07T12:06:32.415Z,69.20
2019-06-07T12:09:00.371Z,70.20
2019-06-07T12:11:27.832Z,70.10
2019-06-07T12:13:56.079Z,67.40
2019-06-07T12:16:23.667Z,67.90
2019-06-07T12:18:51.097Z,68.20
2019-06-07T12:21:19.911Z,69.30
2019-06-07T12:23:48.545Z,67.90
2019-06-07T12:26:16.567Z,66.90
2019-06-07T12:28:44.300Z,69.20
2019-06-07T12:31:12.825Z,66.90
2019-06-07T12:33:40.578Z,69.10
2019-06-07T12:36:08.148Z,67.90
2019-06-07T12:38:35.691Z,67.70
2019-06-07T12:41:03.186Z,68.40
2019-06-07T12:43:30.893Z,66.70
2019-06-07T12:45:58.588Z,67.80
2019-06-07T12:48:26.359Z,65.20
2019-06-07T12:50:54.001Z,64.70
2019-06-07T12:53:25.841Z,67.30
2019-06-07T12:55:50.880Z,66.70
2019-06-07T12:58:28.161Z,66.20
2019-06-07T13:00:48.496Z,63.40
2019-06-07T13:03:16.363Z,62.80
2019-06-07T13:05:43.849Z,62.20
2019-06-07T13:08:11.502Z,62.40
2019-06-07T13:10:39.072Z,63.60
2019-06-07T13:13:06.921Z,63.60
2019-06-07T13:15:34.405Z,62.40
2019-06-07T13:18:02.296Z,62.40
2019-06-07T13:20:29.903Z,60.30
2019-06-07T13:22:57.581Z,61.70
2019-06-07T13:25:41.098Z,59.60
2019-06-07T13:27:54.947Z,61.50
2019-06-07T13:30:23.455Z,58.00
2019-06-07T13:32:52.309Z,58.00
2019-06-07T13:35:20.481Z,58.40
2019-06-07T13:37:49.228Z,58.70
2019-06-07T13:40:19.253Z,58.90
2019-06-07T13:42:46.289Z,60.80
2019-06-07T13:45:14.028Z,62.00
2019-06-07T13:47:41.670Z,56.50
2019-06-07T13:50:10.980Z,56.60
2019-06-07T13:52:39.933Z,56.40
2019-06-07T13:55:08.639Z,57.80
2019-06-07T13:57:36.205Z,58.50
2019-06-07T14:00:10.260Z,57.60
2019-06-07T14:02:34.469Z,56.50
2019-06-07T14:05:02.019Z,58.70
2019-06-07T14:07:30.146Z,56.20
2019-06-07T14:09:58.687Z,57.40
2019-06-07T14:12:26.358Z,56.30
2019-06-07T14:14:55.148Z,54.30
2019-06-07T14:17:23.315Z,52.50
2019-06-07T14:19:51.190Z,53.30
2019-06-07T14:22:18.569Z,53.90
2019-06-07T14:24:46.530Z,54.30
2019-06-07T14:27:14.038Z,54.10
2019-06-07T14:29:41.605Z,55.50
2019-06-07T14:32:09.100Z,54.30
2019-06-07T14:34:36.602Z,52.80
2019-06-07T14:37:04.239Z,56.80
2019-06-07T14:39:33.397Z,52.70
2019-06-07T14:42:09.442Z,53.20
2019-06-07T14:44:31.662Z,53.20
2019-06-07T14:46:59.973Z,53.30
2019-06-07T14:49:28.467Z,52.10
2019-06-07T14:51:55.936Z,52.30
2019-06-07T14:54:24.588Z,52.30
2019-06-07T14:56:52.471Z,50.70
2019-06-07T14:59:20.323Z,49.70
2019-06-07T15:01:48.067Z,50.40
2019-06-07T15:04:15.481Z,50.80
2019-06-07T15:06:43.541Z,50.00
2019-06-07T15:09:11.040Z,51.30
2019-06-07T15:11:39.235Z,50.70
2019-06-07T15:14:09.189Z,50.00
2019-06-07T15:16:37.930Z,51.50
2019-06-07T15:19:05.842Z,50.70
2019-06-07T15:21:34.996Z,51.20
2019-06-07T15:24:02.796Z,51.80
2019-06-07T15:26:32.381Z,52.00
2019-06-07T15:28:59.947Z,51.10
2019-06-07T15:31:27.938Z,51.30
2019-06-07T15:33:55.931Z,51.40
2019-06-07T15:36:23.408Z,51.70
2019-06-07T15:38:51.524Z,51.00
2019-06-07T15:41:20.119Z,50.00
2019-06-07T15:43:49.889Z,49.60
2019-06-07T15:46:17.695Z,50.00
2019-06-07T15:48:45.204Z,49.40
2019-06-07T15:51:12.919Z,48.30
2019-06-07T15:53:44.176Z,48.10
2019-06-07T15:56:10.058Z,47.70
2019-06-07T15:58:37.473Z,48.50
2019-06-07T16:01:05.179Z,40.80
2019-06-07T16:03:33.770Z,37.40
2019-06-07T16:06:01.437Z,41.60
2019-06-07T16:08:28.879Z,43.40
2019-06-07T16:10:56.395Z,43.80
2019-06-07T16:13:23.962Z,44.00
2019-06-07T16:15:51.863Z,43.50
2019-06-07T16:18:19.668Z,43.40
2019-06-07T16:20:47.243Z,44.50
2019-06-07T16:23:14.864Z,44.10
2019-06-07T16:25:42.400Z,44.90
2019-06-07T16:28:10.027Z,44.70
2019-06-07T16:30:38.484Z,44.80
2019-06-07T16:33:06.276Z,45.70
2019-06-07T16:35:34.900Z,45.40
2019-06-07T16:38:02.735Z,46.00
2019-06-07T16:40:30.622Z,45.10
2019-06-07T16:43:13.300Z,45.30
2019-06-07T16:45:27.899Z,45.10
2019-06-07T16:47:55.449Z,45.40
2019-06-07T16:50:23.004Z,46.00
2019-06-07T16:52:50.962Z,44.70
2019-06-07T16:55:18.720Z,45.30
2019-06-07T16:57:46.613Z,45.10
2019-06-07T17:00:14.945Z,43.80
2019-06-07T17:02:42.463Z,43.50
2019-06-07T17:05:10.302Z,43.70
2019-06-07T17:07:38.308Z,44.40
2019-06-07T17:10:06.637Z,45.00
2019-06-07T17:12:34.447Z,44.20
2019-06-07T17:15:02.698Z,44.90
2019-06-07T17:17:30.827Z,42.40
2019-06-07T17:19:58.293Z,42.20
2019-06-07T17:22:25.840Z,42.10
2019-06-07T17:24:53.709Z,40.50
2019-06-07T17:27:21.236Z,40.50
2019-06-07T17:29:50.132Z,40.90
2019-06-07T17:32:17.861Z,39.80
2019-06-07T17:34:46.217Z,39.80
2019-06-07T17:37:14.118Z,39.60
2019-06-07T17:39:43.388Z,41.30
2019-06-07T17:42:11.618Z,42.80
2019-06-07T17:44:39.125Z,46.80
2019-06-07T17:47:06.629Z,48.30
2019-06-07T17:49:34.146Z,46.10
2019-06-07T17:52:01.745Z,49.00
2019-06-07T17:54:29.496Z,47.80
2019-06-07T17:56:57.174Z,51.00
2019-06-07T17:59:24.720Z,49.60
2019-06-07T18:02:13.300Z,49.30
2019-06-07T18:04:22.260Z,51.60
2019-06-07T18:06:51.479Z,51.50
2019-06-07T18:09:21.062Z,49.20
2019-06-07T18:11:49.909Z,48.50
2019-06-07T18:14:17.583Z,51.50
2019-06-07T18:16:46.328Z,50.00
2019-06-07T18:19:14.165Z,50.80
2019-06-07T18:21:41.721Z,52.70
2019-06-07T18:24:09.318Z,54.90
2019-06-07T18:26:36.904Z,55.10
2019-06-07T18:29:04.447Z,55.70
2019-06-07T18:31:32.146Z,54.20
2019-06-07T18:33:59.673Z,53.80
2019-06-07T18:36:27.083Z,52.00
2019-06-07T18:38:55.144Z,52.20
2019-06-07T18:41:22.749Z,53.60
2019-06-07T18:43:51.135Z,53.80
2019-06-07T18:46:18.982Z,52.20
2019-06-07T18:48:48.291Z,52.20
2019-06-07T18:51:16.075Z,50.60
2019-06-07T18:53:43.467Z,50.30
2019-06-07T18:56:10.991Z,49.60
2019-06-07T18:58:38.637Z,49.70
2019-06-07T19:01:06.122Z,48.80
2019-06-07T19:03:33.902Z,48.40
2019-06-07T19:06:01.455Z,47.40
2019-06-07T19:08:28.942Z,45.20
2019-06-07T19:10:56.901Z,46.00
2019-06-07T19:13:25.606Z,46.70
2019-06-07T19:15:53.401Z,47.00
2019-06-07T19:18:21.184Z,47.00
2019-06-07T19:20:50.517Z,46.60
2019-06-07T19:23:18.034Z,46.80
2019-06-07T19:25:45.440Z,47.40
2019-06-07T19:28:12.993Z,49.00
2019-06-07T19:30:41.193Z,49.30
2019-06-07T19:33:08.764Z,50.60
2019-06-07T19:35:36.736Z,52.40
2019-06-07T19:38:04.403Z,53.80
2019-06-07T19:40:31.741Z,53.90
2019-06-07T19:43:00.455Z,54.90
2019-06-07T19:45:31.288Z,55.60
2019-06-07T19:47:58.785Z,56.90
2019-06-07T19:50:26.331Z,57.10
2019-06-07T19:52:55.007Z,56.80
2019-06-07T19:55:22.643Z,58.30
2019-06-07T19:57:50.482Z,58.60
2019-06-07T20:00:18.209Z,58.60
2019-06-07T20:02:46.072Z,58.10
2019-06-07T20:05:14.885Z,58.50
2019-06-07T20:07:44.072Z,58.50
2019-06-07T20:10:12.444Z,57.40
2019-06-07T20:12:40.081Z,57.70
2019-06-07T20:15:27.279Z,57.70
2019-06-07T20:17:37.945Z,59.40
2019-06-07T20:20:05.849Z,59.50
2019-06-07T20:22:33.975Z,59.30
2019-06-07T20:25:03.050Z,59.60
2019-06-07T20:27:31.321Z,60.40
2019-06-07T20:30:00.145Z,60.80
2019-06-07T20:32:28.351Z,61.00
2019-06-07T20:34:57.353Z,61.00
2019-06-07T20:37:25.361Z,61.40
2019-06-07T20:39:52.977Z,61.80
2019-06-07T20:42:21.185Z,62.50
2019-06-07T20:44:49.002Z,62.40
2019-06-07T20:47:16.528Z,63.20
2019-06-07T20:49:44.189Z,61.90
2019-06-07T20:52:11.801Z,61.30
2019-06-07T20:54:39.358Z,60.80
2019-06-07T20:57:08.922Z,61.00
2019-06-07T20:59:36.654Z,61.70
2019-06-07T21:02:05.172Z,61.20
2019-06-07T21:04:32.923Z,61.50
2019-06-07T21:07:01.343Z,60.00
2019-06-07T21:09:29.321Z,59.00
2019-06-07T21:11:57.132Z,59.50
2019-06-07T21:14:25.122Z,60.30
2019-06-07T21:16:52.993Z,61.90
2019-06-07T21:19:20.562Z,62.10
2019-06-07T21:21:48.315Z,62.30
2019-06-07T21:24:15.898Z,62.50
2019-06-07T21:26:43.801Z,62.70
2019-06-07T21:29:12.087Z,63.20
2019-06-07T21:31:39.971Z,62.60
2019-06-07T21:34:10.622Z,61.70
2019-06-07T21:36:36.911Z,61.80
2019-06-07T21:39:06.126Z,61.20
2019-06-07T21:41:33.993Z,61.90
2019-06-07T21:44:02.398Z,61.80
2019-06-07T21:46:30.220Z,60.50
2019-06-07T21:48:57.765Z,60.90
2019-06-07T21:51:25.668Z,60.30
2019-06-07T21:53:53.371Z,59.90
2019-06-07T21:56:21.210Z,59.50
2019-06-07T21:58:48.609Z,59.80
2019-06-07T22:01:28.901Z,59.40
2019-06-07T22:03:56.873Z,59.00
2019-06-07T22:06:24.668Z,58.70
2019-06-07T22:08:52.213Z,58.00
2019-06-07T22:11:20.222Z,57.30
2019-06-07T22:13:48.112Z,57.20
2019-06-07T22:16:26.595Z,58.10
2019-06-07T22:18:45.435Z,57.40
2019-06-07T22:21:12.835Z,58.90
2019-06-07T22:23:43.652Z,57.50
2019-06-07T22:26:11.291Z,57.40
2019-06-07T22:28:38.941Z,57.50
2019-06-07T22:31:06.474Z,56.70
2019-06-07T22:33:34.086Z,55.10
2019-06-07T22:36:01.901Z,55.00
2019-06-07T22:38:29.409Z,53.50
2019-06-07T22:40:56.783Z,53.90
2019-06-07T22:43:24.328Z,53.30
2019-06-07T22:45:52.486Z,52.50
2019-06-07T22:48:20.090Z,52.70
2019-06-07T22:50:47.884Z,52.60
2019-06-07T22:53:15.568Z,52.80
2019-06-07T22:55:47.210Z,52.30
2019-06-07T22:58:15.967Z,52.20
2019-06-07T23:00:43.787Z,52.30
2019-06-07T23:03:12.648Z,52.10
2019-06-07T23:05:40.252Z,51.60
2019-06-07T23:08:09.078Z,52.00
2019-06-07T23:10:36.489Z,52.10
2019-06-07T23:13:04.025Z,52.10
2019-06-07T23:15:32.205Z,51.40
2019-06-07T23:18:00.034Z,52.10
2019-06-07T23:20:27.545Z,52.40
2019-06-07T23:22:55.154Z,52.20
2019-06-07T23:25:24.561Z,52.80
2019-06-07T23:27:52.113Z,52.00
2019-06-07T23:30:21.701Z,51.90
2019-06-07T23:32:49.324Z,51.80
2019-06-07T23:35:17.425Z,51.20
2019-06-07T23:37:45.394Z,51.20
2019-06-07T23:40:14.956Z,51.10
2019-06-07T23:42:43.526Z,50.80
2019-06-07T23:45:12.081Z,50.80
2019-06-07T23:47:41.108Z,50.90
2019-06-07T23:50:09.190Z,51.00
2019-06-07T23:52:37.028Z,50.90
2019-06-07T23:55:04.835Z,50.50
2019-06-07T23:57:32.326Z,50.50
2019-06-07T23:59:59.879Z,50.00
